| time (UTC) | temp C | wind direction | speed KPH | gust KPH | rain 1hr cm | rain 24hr cm | rain mn cm | humidity % | barometer mb |
| 20260506123100 | 11 | 230 | 3.2 | 14.5 | 0.00 | 0.00 | 0.00 | 29 | 1012.1 |
| 20260506121601 | 10 | 208 | 3.2 | 16.1 | 0.00 | 0.00 | 0.00 | 29 | 1012.1 |
| 20260506120110 | 10 | 288 | 4.8 | 12.9 | 0.00 | 0.00 | 0.00 | 27 | 1012.0 |
| 20260506120004 | 10 | 321 | 6.4 | 12.9 | 0.00 | 0.00 | 0.00 | 28 | 1012.0 |
| 20260506114600 | 10 | 227 | 8.0 | 17.7 | 0.00 | 0.00 | 0.00 | 27 | 1012.1 |
| 20260506113100 | 10 | 321 | 8.0 | 16.1 | 0.00 | 0.00 | 0.00 | 27 | 1012.1 |
| 20260506111559 | 11 | 263 | 3.2 | 14.5 | 0.00 | 0.00 | 0.00 | 30 | 1012.1 |
| 20260506110114 | 11 | 126 | 3.2 | 12.9 | 0.00 | 0.00 | 0.00 | 32 | 1011.9 |
| 20260506110002 | 11 | 309 | 3.2 | 12.9 | 0.00 | 0.00 | 0.00 | 30 | 1011.9 |
| 20260506104614 | 11 | 225 | 3.2 | 9.7 | 0.00 | 0.00 | 0.00 | 32 | 1011.8 |
| 20260506103100 | 11 | 277 | 4.8 | 14.5 | 0.00 | 0.00 | 0.00 | 34 | 1011.8 |
| 20260506103003 | 11 | 285 | 4.8 | 14.5 | 0.00 | 0.00 | 0.00 | 34 | 1011.8 |
| 20260506101600 | 10 | 318 | 3.2 | 16.1 | 0.00 | 0.00 | 0.00 | 34 | 1011.8 |
| 20260506100113 | 10 | 273 | 3.2 | 12.9 | 0.00 | 0.00 | 0.00 | 36 | 1011.9 |
| 20260506100005 | 10 | 257 | 3.2 | 12.9 | 0.00 | 0.00 | 0.00 | 36 | 1011.8 |
| 20260506094604 | 10 | 252 | 3.2 | 14.5 | 0.00 | 0.00 | 0.00 | 38 | 1011.6 |
| 20260506093102 | 8 | 281 | 3.2 | 6.4 | 0.00 | 0.00 | 0.00 | 43 | 1011.5 |
| 20260506091607 | 8 | 305 | 4.8 | 14.5 | 0.00 | 0.00 | 0.00 | 43 | 1011.5 |
| 20260506090105 | 11 | 295 | 1.6 | 16.1 | 0.00 | 0.00 | 0.00 | 43 | 1011.4 |
| 20260506090002 | 10 | 317 | 3.2 | 16.1 | 0.00 | 0.00 | 0.00 | 43 | 1011.3 |
| 20260506084634 | 9 | 75 | 1.6 | 14.5 | 0.00 | 0.00 | 0.00 | 45 | 1011.3 |
| 20260506083100 | 8 | 39 | 6.4 | 12.9 | 0.00 | 0.00 | 0.00 | 45 | 1011.3 |
| 20260506081602 | 8 | 268 | 6.4 | 14.5 | 0.00 | 0.00 | 0.00 | 47 | 1011.2 |
| 20260506073101 | 9 | 319 | 3.2 | 11.3 | 0.00 | 0.00 | 0.00 | 47 | 1010.9 |
| 20260506071600 | 8 | 322 | 4.8 | 12.9 | 0.00 | 0.00 | 0.00 | 47 | 1010.7 |
| 20260506061601 | 7 | 336 | 4.8 | 9.7 | 0.00 | 0.00 | 0.00 | 57 | 1010.5 |
| 20260506044602 | 3 | 233 | 1.6 | 3.2 | 0.00 | 0.00 | 0.00 | 84 | 1009.9 |
| 20260506043100 | 2 | 233 | 0.0 | 3.2 | 0.00 | 0.00 | 0.00 | 86 | 1009.7 |
| 20260506041609 | 2 | 233 | 0.0 | 1.6 | 0.00 | 0.00 | 0.00 | 88 | 1009.6 |
| 20260506040101 | 1 | 233 | 0.0 | 1.6 | 0.00 | 0.00 | 0.00 | 90 | 1009.5 |
| 20260506040002 | 1 | 233 | 0.0 | 1.6 | 0.00 | 0.00 | 0.00 | 90 | 1009.5 |
| 20260506034601 | 0 | 233 | 0.0 | 0.0 | 0.00 | 0.00 | 0.00 | 94 | 1009.2 |
| 20260506033101 | -1 | 233 | 0.0 | 1.6 | 0.00 | 0.00 | 0.00 | 96 | 1009.1 |
| 20260506031600 | -2 | 233 | 0.0 | 1.6 | 0.00 | 0.00 | 0.00 | 95 | 1008.8 |
| 20260506030002 | -2 | 233 | 0.0 | 0.0 | 0.00 | 0.00 | 0.00 | 95 | 1008.7 |
| 20260506024605 | -2 | 233 | 0.0 | 0.0 | 0.00 | 0.00 | 0.00 | 95 | 1008.5 |
| 20260506023109 | -2 | 233 | 0.0 | 0.0 | 0.00 | 0.00 | 0.00 | 94 | 1008.5 |
| 20260506021622 | -2 | 233 | 0.0 | 1.6 | 0.00 | 0.00 | 0.00 | 94 | 1008.5 |
| 20260506020100 | -2 | 233 | 0.0 | 1.6 | 0.00 | 0.00 | 0.00 | 94 | 1008.4 |
| 20260506020003 | -2 | 233 | 0.0 | 1.6 | 0.00 | 0.00 | 0.00 | 94 | 1008.4 |
| 20260506014600 | -2 | 233 | 0.0 | 0.0 | 0.00 | 0.00 | 0.00 | 94 | 1008.4 |
| 20260506013110 | -2 | 233 | 0.0 | 0.0 | 0.00 | 0.00 | 0.00 | 93 | 1008.2 |
| 20260506011617 | -2 | 233 | 0.0 | 0.0 | 0.00 | 0.00 | 0.00 | 93 | 1008.1 |
| 20260506010003 | -2 | 233 | 0.0 | 0.0 | 0.00 | 0.00 | 0.00 | 92 | 1007.8 |
| 20260506004600 | -2 | 233 | 0.0 | 0.0 | 0.00 | 0.00 | 0.00 | 92 | 1007.7 |
| 20260506003100 | -2 | 233 | 0.0 | 0.0 | 0.00 | 0.00 | 0.00 | 91 | 1007.7 |
| 20260506001603 | -2 | 233 | 0.0 | 0.0 | 0.00 | 0.00 | 0.00 | 91 | 1007.6 |
| 20260506000002 | -1 | 233 | 0.0 | 0.0 | 0.00 | 0.00 | 0.00 | 91 | 1007.6 |
| 20260505234600 | -1 | 233 | 0.0 | 3.2 | 0.00 | 0.00 | 0.00 | 91 | 1007.4 |
| 20260505233106 | -1 | 281 | 0.0 | 3.2 | 0.00 | 0.00 | 0.00 | 91 | 1007.3 |
| 20260505231613 | -1 | 281 | 0.0 | 1.6 | 0.00 | 0.00 | 0.00 | 90 | 1007.3 |
| 20260505230100 | -1 | 281 | 0.0 | 0.0 | 0.00 | 0.00 | 0.00 | 90 | 1007.3 |
| 20260505230002 | -1 | 281 | 0.0 | 0.0 | 0.00 | 0.00 | 0.00 | 90 | 1007.3 |
| 20260505224604 | -1 | 281 | 0.0 | 0.0 | 0.00 | 0.00 | 0.00 | 89 | 1007.3 |
| 20260505223100 | -1 | 281 | 0.0 | 0.0 | 0.00 | 0.00 | 0.00 | 88 | 1007.2 |
| 20260505221604 | -1 | 281 | 0.0 | 0.0 | 0.00 | 0.00 | 0.00 | 87 | 1007.2 |
| 20260505220000 | -1 | 281 | 0.0 | 0.0 | 0.00 | 0.00 | 0.00 | 86 | 1007.1 |
| 20260505214600 | -1 | 281 | 0.0 | 0.0 | 0.00 | 0.00 | 0.00 | 86 | 1007.1 |
| 20260505213059 | 0 | 281 | 0.0 | 0.0 | 0.00 | 0.00 | 0.00 | 85 | 1007.0 |
| 20260505211559 | 0 | 281 | 0.0 | 1.6 | 0.00 | 0.00 | 0.00 | 84 | 1006.9 |
| 20260505210059 | 0 | 281 | 0.0 | 0.0 | 0.00 | 0.00 | 0.00 | 84 | 1007.0 |
| 20260505210004 | 0 | 281 | 0.0 | 0.0 | 0.00 | 0.00 | 0.00 | 83 | 1006.9 |
| 20260505204559 | 0 | 281 | 0.0 | 0.0 | 0.00 | 0.00 | 0.00 | 82 | 1006.7 |
| 20260505203121 | 0 | 281 | 0.0 | 0.0 | 0.00 | 0.00 | 0.00 | 80 | 1006.6 |
| 20260505201604 | 1 | 281 | 0.0 | 0.0 | 0.00 | 0.00 | 0.00 | 80 | 1006.6 |
| 20260505200059 | 1 | 281 | 0.0 | 0.0 | 0.00 | 0.00 | 0.00 | 78 | 1006.4 |
| 20260505200002 | 1 | 281 | 0.0 | 0.0 | 0.00 | 0.00 | 0.00 | 78 | 1006.4 |
| 20260505194559 | 1 | 281 | 0.0 | 0.0 | 0.00 | 0.08 | 0.00 | 77 | 1006.3 |
| 20260505193059 | 2 | 281 | 0.0 | 0.0 | 0.00 | 0.08 | 0.00 | 75 | 1006.2 |
| 20260505191611 | 2 | 281 | 0.0 | 0.0 | 0.00 | 0.08 | 0.00 | 73 | 1006.1 |
| 20260505190001 | 3 | 281 | 0.0 | 0.0 | 0.00 | 0.08 | 0.00 | 71 | 1006.0 |
| 20260505184559 | 4 | 281 | 0.0 | 1.6 | 0.00 | 0.08 | 0.00 | 68 | 1006.0 |
| 20260505183101 | 4 | 281 | 0.0 | 3.2 | 0.00 | 0.08 | 0.00 | 66 | 1005.7 |
| 20260505181559 | 5 | 275 | 0.0 | 6.4 | 0.00 | 0.08 | 0.00 | 65 | 1005.6 |
| 20260505180001 | 5 | 275 | 1.6 | 4.8 | 0.00 | 0.08 | 0.00 | 64 | 1005.4 |
| 20260505174605 | 6 | 259 | 3.2 | 12.9 | 0.00 | 0.08 | 0.00 | 62 | 1005.3 |
| 20260505173100 | 6 | 269 | 3.2 | 8.0 | 0.00 | 0.08 | 0.00 | 60 | 1005.2 |
| 20260505171559 | 6 | 253 | 1.6 | 9.7 | 0.00 | 0.08 | 0.00 | 61 | 1005.1 |
| 20260505170111 | 6 | 233 | 1.6 | 9.7 | 0.00 | 0.08 | 0.00 | 59 | 1005.0 |
| 20260505170001 | 6 | 248 | 0.0 | 9.7 | 0.00 | 0.08 | 0.00 | 59 | 1005.0 |
| 20260505164559 | 6 | 234 | 1.6 | 12.9 | 0.00 | 0.08 | 0.00 | 59 | 1005.0 |
| 20260505163102 | 6 | 306 | 3.2 | 12.9 | 0.00 | 0.08 | 0.00 | 57 | 1004.9 |
| 20260505161503 | 6 | 250 | 1.6 | 17.7 | 0.00 | 0.08 | 0.00 | 55 | 1004.8 |
| 20260505153003 | 7 | 255 | 3.2 | 11.3 | 0.00 | 0.08 | 0.00 | 54 | 1004.4 |
| 20260505151502 | 8 | 271 | 3.2 | 14.5 | 0.00 | 0.08 | 0.00 | 54 | 1004.5 |
| 20260505124503 | 9 | 199 | 4.8 | 16.1 | 0.00 | 0.08 | 0.00 | 53 | 1003.7 |